Time;durP1;ratioP1;P1;durP2;ratioP2;P2;SDS_P1;SDS_P2;PMS_P1;PMS_P2;Temp;Humidity;BMP_temperature;BMP_pressure;BME280_temperature;BME280_humidity;BME280_pressure;Samples;Min_cycle;Max_cycle;Signal;HPM_P1;HPM_P2
2024/01/07 00:01:03;;;;;;;20.40;12.60;;;14.30;90.70;;;;;;4975062;28;20031;-76
2024/01/07 00:03:28;;;;;;;20.42;12.70;;;14.20;90.70;;;;;;4974872;28;20030;-74
2024/01/07 00:05:54;;;;;;;25.20;13.98;;;14.20;90.80;;;;;;4975142;28;20397;-73
2024/01/07 00:08:21;;;;;;;21.60;13.95;;;14.20;90.80;;;;;;4974815;28;20066;-74
2024/01/07 00:10:46;;;;;;;19.20;13.73;;;14.20;90.80;;;;;;4973498;28;20031;-74
2024/01/07 00:13:12;;;;;;;21.92;14.77;;;14.20;90.90;;;;;;4974607;28;20122;-74
2024/01/07 00:15:38;;;;;;;21.83;13.95;;;14.20;90.90;;;;;;4974740;28;20075;-73
2024/01/07 00:18:04;;;;;;;20.60;13.10;;;14.20;91.00;;;;;;4974580;28;20038;-74
2024/01/07 00:20:29;;;;;;;20.58;12.25;;;14.30;91.00;;;;;;4974695;28;20506;-73
2024/01/07 00:22:56;;;;;;;17.05;12.55;;;14.30;91.00;;;;;;4974105;28;20435;-74
2024/01/07 00:25:21;;;;;;;19.40;12.30;;;14.30;91.00;;;;;;4974667;28;20034;-75
2024/01/07 00:27:47;;;;;;;17.80;12.50;;;14.30;90.90;;;;;;4974512;28;20089;-74
2024/01/07 00:30:13;;;;;;;18.08;11.75;;;14.30;90.90;;;;;;4974401;28;20454;-74
2024/01/07 00:32:39;;;;;;;17.52;12.32;;;14.30;90.90;;;;;;4957253;28;20488;-75
2024/01/07 00:35:05;;;;;;;21.27;12.95;;;14.40;90.90;;;;;;4974493;28;20027;-75
2024/01/07 00:37:31;;;;;;;18.95;13.40;;;14.30;91.00;;;;;;4974142;28;20375;-75
2024/01/07 00:39:56;;;;;;;21.67;13.82;;;14.30;91.00;;;;;;4974212;28;20057;-75
2024/01/07 00:42:22;;;;;;;18.05;13.25;;;14.30;91.10;;;;;;4974471;28;20053;-75
2024/01/07 00:44:48;;;;;;;23.33;14.73;;;14.30;91.10;;;;;;4974192;28;20027;-74
2024/01/07 00:47:13;;;;;;;20.80;14.20;;;14.20;91.10;;;;;;4974159;28;20035;-74
2024/01/07 00:49:40;;;;;;;23.70;13.50;;;14.20;91.10;;;;;;4974272;28;20490;-74
2024/01/07 00:52:06;;;;;;;22.63;13.57;;;14.20;91.20;;;;;;4974271;28;20038;-74
2024/01/07 00:54:32;;;;;;;19.65;13.70;;;14.10;91.20;;;;;;4974342;28;20031;-74
2024/01/07 00:56:57;;;;;;;21.17;13.00;;;14.10;91.20;;;;;;4973284;28;20453;-74
2024/01/07 00:59:23;;;;;;;23.27;14.40;;;14.10;91.20;;;;;;4975907;28;20042;-75
2024/01/07 01:01:49;;;;;;;21.42;13.52;;;14.10;91.20;;;;;;4959078;28;20394;-74
2024/01/07 01:04:15;;;;;;;21.20;13.10;;;14.10;91.20;;;;;;4972693;28;20086;-74
2024/01/07 01:06:40;;;;;;;16.90;13.20;;;14.10;91.30;;;;;;4974055;28;20037;-74
2024/01/07 01:09:06;;;;;;;20.00;12.57;;;14.00;91.40;;;;;;4973682;28;20039;-74
2024/01/07 01:11:31;;;;;;;20.83;13.23;;;14.00;91.40;;;;;;4973764;28;20035;-74
2024/01/07 01:13:57;;;;;;;19.38;12.82;;;14.00;91.50;;;;;;4974372;28;20041;-74
2024/01/07 01:16:23;;;;;;;18.10;13.18;;;13.90;91.40;;;;;;4974044;28;20324;-74
2024/01/07 01:18:50;;;;;;;23.05;13.20;;;13.90;91.60;;;;;;4973733;28;20047;-74
2024/01/07 01:21:15;;;;;;;17.05;12.45;;;13.90;91.60;;;;;;4973941;28;20084;-74
2024/01/07 01:23:41;;;;;;;21.88;12.55;;;13.90;91.60;;;;;;4973621;28;20501;-73
2024/01/07 01:26:07;;;;;;;18.58;13.38;;;13.90;91.90;;;;;;4973656;28;20031;-75
2024/01/07 01:28:32;;;;;;;20.42;13.80;;;13.80;91.60;;;;;;4973502;28;20062;-75
2024/01/07 01:30:58;;;;;;;22.15;13.82;;;13.80;91.70;;;;;;4972444;28;20070;-73
2024/01/07 01:33:24;;;;;;;18.70;13.60;;;13.80;91.70;;;;;;4973916;28;20035;-73
2024/01/07 01:35:50;;;;;;;19.48;13.15;;;13.70;91.80;;;;;;4972619;28;20134;-69
2024/01/07 01:38:15;;;;;;;19.25;13.40;;;13.70;91.90;;;;;;4972333;28;20041;-74
2024/01/07 01:40:41;;;;;;;21.98;15.48;;;13.70;91.90;;;;;;4973760;28;20118;-75
2024/01/07 01:43:07;;;;;;;21.33;14.43;;;13.70;91.80;;;;;;4973638;28;20035;-73
2024/01/07 01:45:33;;;;;;;19.10;14.25;;;13.70;92.00;;;;;;4973585;28;20478;-74
2024/01/07 01:47:59;;;;;;;20.48;14.88;;;13.70;92.10;;;;;;4973370;28;20034;-74
2024/01/07 01:50:25;;;;;;;21.33;15.35;;;13.70;92.10;;;;;;4956197;28;20386;-74
2024/01/07 01:52:51;;;;;;;17.60;13.75;;;13.70;92.10;;;;;;4974459;28;20031;-75
2024/01/07 01:55:18;;;;;;;18.95;13.40;;;13.70;92.00;;;;;;4973255;28;20030;-74
2024/01/07 01:57:47;;;;;;;21.80;15.07;;;13.70;92.10;;;;;;4973313;28;20078;-74
2024/01/07 02:00:13;;;;;;;18.42;13.65;;;13.70;92.10;;;;;;4973741;28;20055;-76
2024/01/07 02:02:38;;;;;;;19.40;13.35;;;13.70;92.10;;;;;;4973331;28;20082;-75
2024/01/07 02:05:04;;;;;;;20.80;13.18;;;13.70;92.10;;;;;;4972993;28;20371;-74
2024/01/07 02:07:31;;;;;;;19.58;13.13;;;13.70;92.10;;;;;;4973041;28;20042;-73
2024/01/07 02:09:57;;;;;;;16.88;12.75;;;13.70;92.10;;;;;;4973376;28;20114;-75
2024/01/07 02:12:22;;;;;;;20.17;13.65;;;13.70;92.10;;;;;;4973598;28;20513;-74
2024/01/07 02:14:48;;;;;;;17.40;12.35;;;13.70;92.10;;;;;;4973097;28;20027;-74
2024/01/07 02:17:15;;;;;;;17.85;11.20;;;13.70;92.20;;;;;;4973216;28;20034;-74
2024/01/07 02:19:41;;;;;;;15.63;11.10;;;13.70;92.30;;;;;;4973159;28;20506;-75
2024/01/07 02:22:06;;;;;;;16.33;11.40;;;13.70;92.20;;;;;;4973114;28;20037;-73
2024/01/07 02:24:32;;;;;;;19.45;10.95;;;13.70;92.20;;;;;;4955722;28;20387;-74
2024/01/07 02:27:02;;;;;;;14.32;10.23;;;13.70;92.30;;;;;;4973434;28;20113;-74
2024/01/07 02:29:28;;;;;;;12.70;9.30;;;13.70;92.20;;;;;;4973139;28;20506;-75
2024/01/07 02:31:54;;;;;;;14.07;9.55;;;13.80;92.30;;;;;;4971768;28;20027;-74
2024/01/07 02:34:19;;;;;;;13.48;8.75;;;13.70;92.20;;;;;;4972985;28;20118;-74
2024/01/07 02:36:45;;;;;;;12.85;9.75;;;13.70;92.30;;;;;;4973316;28;20320;-74
2024/01/07 02:39:11;;;;;;;14.27;9.57;;;13.80;92.30;;;;;;4973376;28;20070;-73
2024/01/07 02:41:36;;;;;;;19.20;10.35;;;13.80;92.30;;;;;;4973357;28;20466;-75
2024/01/07 02:44:02;;;;;;;14.48;10.60;;;13.80;92.30;;;;;;4973009;28;20102;-74
2024/01/07 02:46:28;;;;;;;17.05;11.52;;;13.70;92.20;;;;;;4974662;28;20035;-73
2024/01/07 02:48:53;;;;;;;16.63;11.77;;;13.70;92.20;;;;;;4976288;28;20073;-73
2024/01/07 02:51:19;;;;;;;16.90;11.23;;;13.70;92.20;;;;;;4976251;28;20402;-75
2024/01/07 02:53:45;;;;;;;17.55;11.50;;;13.60;92.20;;;;;;4976176;28;20081;-74
2024/01/07 02:56:10;;;;;;;14.52;11.63;;;13.60;92.20;;;;;;4976485;28;20046;-74
2024/01/07 02:58:36;;;;;;;16.90;12.90;;;13.60;92.20;;;;;;4976259;28;20505;-74
2024/01/07 03:01:02;;;;;;;17.35;13.60;;;13.60;92.30;;;;;;4976421;28;20486;-74
2024/01/07 03:03:28;;;;;;;21.15;14.60;;;13.60;92.40;;;;;;4976012;28;20070;-74
2024/01/07 03:05:54;;;;;;;18.75;14.80;;;13.60;92.50;;;;;;4976320;28;20475;-74
2024/01/07 03:08:19;;;;;;;20.30;15.48;;;13.50;92.40;;;;;;4974565;28;20046;-74
2024/01/07 03:10:45;;;;;;;19.40;15.63;;;13.50;92.40;;;;;;4975081;28;20027;-75
2024/01/07 03:13:12;;;;;;;20.10;14.88;;;13.50;92.50;;;;;;4975805;28;20435;-74
2024/01/07 03:15:37;;;;;;;18.27;14.55;;;13.40;92.60;;;;;;4976012;28;20035;-74
2024/01/07 03:18:03;;;;;;;22.63;16.08;;;13.40;92.60;;;;;;4975601;28;20559;-75
2024/01/07 03:20:29;;;;;;;20.20;16.45;;;13.40;92.80;;;;;;4975550;28;20394;-74
2024/01/07 03:22:55;;;;;;;20.75;16.02;;;13.40;92.60;;;;;;4975747;28;20042;-73
2024/01/07 03:25:21;;;;;;;22.25;16.45;;;13.40;92.60;;;;;;4976680;28;20034;-74
2024/01/07 03:27:46;;;;;;;20.15;16.10;;;13.40;92.70;;;;;;4977567;28;20097;-75
2024/01/07 03:30:12;;;;;;;20.27;16.83;;;13.40;92.70;;;;;;4975970;28;20046;-75
2024/01/07 03:32:38;;;;;;;20.00;16.02;;;13.40;92.70;;;;;;4975582;28;20031;-74
2024/01/07 03:35:04;;;;;;;20.00;15.75;;;13.40;92.60;;;;;;4975486;28;20034;-73
2024/01/07 03:37:29;;;;;;;22.33;16.42;;;13.30;92.70;;;;;;4975602;28;20042;-73
2024/01/07 03:39:55;;;;;;;22.98;17.27;;;13.30;92.70;;;;;;4975901;28;20043;-74
2024/01/07 03:42:21;;;;;;;22.20;16.17;;;13.30;93.00;;;;;;4975492;28;20034;-74
2024/01/07 03:44:46;;;;;;;19.67;15.85;;;13.30;92.80;;;;;;4975204;28;20045;-74
2024/01/07 03:47:12;;;;;;;20.23;16.58;;;13.30;92.70;;;;;;4975401;28;20026;-75
2024/01/07 03:49:38;;;;;;;19.88;16.15;;;13.40;92.70;;;;;;4975278;28;20047;-74
2024/01/07 03:52:07;;;;;;;23.95;16.45;;;13.40;92.50;;;;;;4975125;28;20035;-74
2024/01/07 03:54:33;;;;;;;21.00;15.98;;;13.40;92.60;;;;;;4975272;28;20035;-74
2024/01/07 03:56:59;;;;;;;21.95;17.60;;;13.40;92.70;;;;;;4974899;28;20038;-75
2024/01/07 03:59:25;;;;;;;19.85;16.80;;;13.40;92.40;;;;;;4975089;28;20129;-73
2024/01/07 04:01:56;;;;;;;20.38;17.40;;;13.30;92.60;;;;;;4975249;28;20039;-74
2024/01/07 04:04:21;;;;;;;21.15;17.17;;;13.30;92.60;;;;;;4975148;28;20039;-75
2024/01/07 04:06:47;;;;;;;24.40;17.48;;;13.20;92.60;;;;;;4975019;28;20403;-75
2024/01/07 04:09:13;;;;;;;22.17;17.92;;;13.10;92.70;;;;;;4975198;28;20042;-74
2024/01/07 04:11:42;;;;;;;21.77;17.63;;;13.10;92.80;;;;;;4975054;28;20042;-76
2024/01/07 04:14:08;;;;;;;23.38;18.42;;;13.10;92.90;;;;;;4973827;28;20402;-74
2024/01/07 04:16:34;;;;;;;26.08;18.10;;;13.20;92.80;;;;;;4974961;28;20042;-73
2024/01/07 04:18:59;;;;;;;20.70;16.13;;;13.20;92.80;;;;;;4974816;28;20039;-74
2024/01/07 04:21:25;;;;;;;22.77;16.55;;;13.20;92.90;;;;;;4974729;28;20048;-74
2024/01/07 04:23:51;;;;;;;19.67;16.02;;;13.10;92.80;;;;;;4974954;28;20520;-75
2024/01/07 04:26:17;;;;;;;20.02;16.13;;;13.20;92.80;;;;;;4957626;28;20548;-74
2024/01/07 04:28:43;;;;;;;19.20;16.30;;;13.20;92.80;;;;;;4975262;28;20067;-75
2024/01/07 04:31:09;;;;;;;19.75;14.68;;;13.30;92.90;;;;;;4974963;28;20052;-74
2024/01/07 04:33:35;;;;;;;19.88;15.60;;;13.20;92.60;;;;;;4975132;28;20034;-75
2024/01/07 04:36:00;;;;;;;19.20;15.98;;;13.20;92.70;;;;;;4975381;28;20039;-75
2024/01/07 04:38:27;;;;;;;20.98;15.48;;;13.20;92.80;;;;;;4974844;28;20109;-74
2024/01/07 04:40:53;;;;;;;18.88;14.20;;;13.20;92.80;;;;;;4974838;28;20394;-75
2024/01/07 04:43:19;;;;;;;17.83;13.77;;;13.20;92.80;;;;;;4974580;28;20038;-74
2024/01/07 04:45:46;;;;;;;20.58;15.02;;;13.10;92.90;;;;;;4974617;28;20035;-73
2024/01/07 22:48:09;;;;;;;11.25;4.93;;;11.50;93.20;;;;;;4979757;23;20159;-78
2024/01/07 22:50:34;;;;;;;7.25;4.32;;;11.40;93.40;;;;;;5010137;28;20584;-76
2024/01/07 22:53:00;;;;;;;6.35;4.28;;;11.40;93.40;;;;;;5015863;28;20065;-79
2024/01/07 22:55:26;;;;;;;6.75;4.30;;;11.50;93.40;;;;;;5014578;28;20026;-80
2024/01/07 22:57:51;;;;;;;6.88;4.50;;;11.50;93.40;;;;;;4997299;28;20038;-80
2024/01/07 23:00:23;;;;;;;6.57;4.18;;;11.50;93.40;;;;;;5010532;28;20442;-80
2024/01/07 23:02:52;;;;;;;8.10;4.93;;;11.60;93.40;;;;;;5014751;28;20057;-80
2024/01/07 23:05:18;;;;;;;8.05;4.45;;;11.60;93.50;;;;;;5015894;28;20112;-78
2024/01/07 23:07:43;;;;;;;8.57;4.65;;;11.60;93.40;;;;;;5016026;28;20084;-78
2024/01/07 23:10:15;;;;;;;7.57;4.47;;;11.60;93.40;;;;;;5010646;28;20037;-81
2024/01/07 23:12:41;;;;;;;9.82;4.68;;;11.60;93.30;;;;;;5014681;28;20062;-76
2024/01/07 23:15:07;;;;;;;9.15;4.45;;;11.60;93.40;;;;;;5014992;28;20371;-75
2024/01/07 23:17:33;;;;;;;6.85;4.25;;;11.70;93.40;;;;;;5015119;28;20030;-75
2024/01/07 23:19:59;;;;;;;6.55;4.60;;;11.70;93.40;;;;;;5007364;28;20511;-74
2024/01/07 23:22:25;;;;;;;7.45;4.40;;;11.70;93.30;;;;;;5015349;28;20129;-76
2024/01/07 23:24:53;;;;;;;7.20;4.50;;;11.70;93.50;;;;;;5014944;28;20034;-76
2024/01/07 23:27:19;;;;;;;6.00;4.25;;;11.70;93.30;;;;;;4997342;28;20041;-76
2024/01/07 23:29:45;;;;;;;7.13;4.40;;;11.80;93.40;;;;;;5014566;28;20481;-75
2024/01/07 23:32:10;;;;;;;8.55;4.20;;;11.80;93.30;;;;;;5013937;28;20034;-75
2024/01/07 23:34:39;;;;;;;7.13;4.40;;;11.80;93.40;;;;;;5013851;28;20034;-76
2024/01/07 23:37:04;;;;;;;7.32;4.28;;;11.80;93.40;;;;;;5014936;28;20030;-75
2024/01/07 23:39:31;;;;;;;7.05;4.60;;;11.80;93.30;;;;;;5013970;28;20401;-74
2024/01/07 23:41:56;;;;;;;6.80;3.55;;;11.90;93.40;;;;;;5014674;28;20503;-76
2024/01/07 23:44:22;;;;;;;6.57;4.22;;;11.80;93.30;;;;;;5014273;28;20034;-78
2024/01/07 23:46:48;;;;;;;5.80;4.07;;;11.80;93.30;;;;;;5014673;28;20041;-75
2024/01/07 23:49:13;;;;;;;6.63;4.10;;;11.90;93.30;;;;;;5014098;28;20054;-76
2024/01/07 23:51:39;;;;;;;7.70;4.03;;;11.80;93.30;;;;;;5013850;28;20045;-76
2024/01/07 23:54:05;;;;;;;6.53;3.92;;;11.80;93.20;;;;;;5014442;28;20037;-75
2024/01/07 23:56:35;;;;;;;6.72;3.80;;;11.90;93.30;;;;;;5013788;28;20037;-74
2024/01/07 23:59:00;;;;;;;7.07;4.18;;;11.90;93.30;;;;;;5014540;28;20037;-75
